Terminal Aerodrome Forecast
Issued by NWS Louisville, KY

Home | Current Version | Previous Version | Text Only | Print | Product List | Glossary On
Versions: 1 2 3 4 5 6 7 8 9 10 11 12 13
000
FTUS43 KLMK 261100
TAFLEX
TAF
KLEX 261126Z 2612/2712 02006KT P6SM OVC080
     FM261500 01007KT P6SM BKN028 BKN150
     FM261700 35011KT P6SM VCSH OVC020
     FM270200 34010KT P6SM OVC020=

USA.gov is the U.S. government's official web portal to all federal, state and local government web resources and services.